Time;durP1;ratioP1;P1;durP2;ratioP2;P2;SDS_P1;SDS_P2;PMS_P1;PMS_P2;Temp;Humidity;BMP_temperature;BMP_pressure;BME280_temperature;BME280_humidity;BME280_pressure;Samples;Min_cycle;Max_cycle;Signal;HPM_P1;HPM_P2
2021/06/18 00:01:17;;;;;;;10.82;6.22;;;25.90;56.70;;;;;;5035505;28;20140;-54
2021/06/18 00:03:44;;;;;;;11.82;6.40;;;25.90;56.80;;;;;;5053429;28;20052;-55
2021/06/18 00:06:11;;;;;;;9.55;6.05;;;25.90;56.70;;;;;;5034750;28;20045;-57
2021/06/18 00:08:39;;;;;;;8.23;5.43;;;25.90;56.80;;;;;;5054593;28;20051;-56
2021/06/18 00:11:07;;;;;;;8.95;5.75;;;25.90;56.70;;;;;;5051807;28;20139;-52
2021/06/18 00:13:34;;;;;;;9.93;6.45;;;25.90;56.70;;;;;;5038831;28;20049;-56
2021/06/18 00:16:01;;;;;;;9.85;5.85;;;25.90;56.70;;;;;;5037419;28;20506;-53
2021/06/18 00:18:29;;;;;;;7.60;5.03;;;25.90;56.70;;;;;;5050021;28;20131;-55
2021/06/18 00:20:56;;;;;;;9.48;5.75;;;25.90;56.80;;;;;;5065401;28;20048;-53
2021/06/18 00:23:23;;;;;;;13.98;5.90;;;25.90;56.80;;;;;;5068157;28;20044;-58
2021/06/18 00:25:50;;;;;;;8.80;5.53;;;25.90;56.80;;;;;;5059433;28;20091;-54
2021/06/18 00:28:17;;;;;;;9.95;5.63;;;25.90;56.80;;;;;;5061997;28;20090;-53
2021/06/18 00:30:45;;;;;;;8.45;5.88;;;25.90;56.80;;;;;;5066183;28;20053;-56
2021/06/18 00:33:12;;;;;;;10.45;5.82;;;25.90;56.70;;;;;;5044070;28;20136;-52
2021/06/18 00:35:39;;;;;;;9.65;5.63;;;25.90;56.70;;;;;;5045679;28;20056;-57
2021/06/18 00:38:06;;;;;;;8.30;5.75;;;25.90;56.70;;;;;;5040969;28;20072;-54
2021/06/18 00:40:34;;;;;;;7.65;5.28;;;25.80;56.70;;;;;;5053701;28;20422;-58
2021/06/18 00:43:01;;;;;;;10.77;5.85;;;25.90;56.80;;;;;;5049736;28;20045;-55
2021/06/18 00:45:28;;;;;;;9.05;5.57;;;25.90;56.80;;;;;;5036675;28;20041;-57
2021/06/18 00:47:59;;;;;;;8.77;5.75;;;25.90;56.80;;;;;;5037265;28;20132;-50
2021/06/18 00:50:28;;;;;;;9.00;5.32;;;25.90;56.80;;;;;;5037759;28;20132;-50
2021/06/18 00:52:55;;;;;;;8.38;5.63;;;25.90;56.80;;;;;;5050294;28;20045;-54
2021/06/18 00:55:22;;;;;;;9.05;5.75;;;25.90;56.80;;;;;;5037122;28;20095;-55
2021/06/18 00:57:51;;;;;;;8.02;4.95;;;25.90;56.80;;;;;;5052031;28;20045;-52
2021/06/18 01:00:19;;;;;;;6.97;4.90;;;25.90;56.80;;;;;;5052934;28;20067;-55
2021/06/18 01:02:47;;;;;;;7.00;5.03;;;25.90;56.80;;;;;;5051899;28;20059;-53
2021/06/18 01:05:17;;;;;;;9.02;5.28;;;25.90;56.80;;;;;;5033875;28;20053;-56
2021/06/18 01:07:59;;;;;;;8.82;5.18;;;25.90;56.80;;;;;;5052378;28;20080;-54
2021/06/18 01:10:35;;;;;;;8.52;5.22;;;25.80;56.70;;;;;;5051859;28;20044;-51
2021/06/18 01:13:10;;;;;;;8.02;5.05;;;25.80;56.70;;;;;;5033983;28;20171;-54
2021/06/18 01:15:49;;;;;;;10.90;5.65;;;25.80;56.80;;;;;;5034864;28;20140;-52
2021/06/18 01:18:23;;;;;;;8.23;5.72;;;25.80;56.80;;;;;;5035324;28;20087;-51
2021/06/18 01:21:12;;;;;;;10.00;5.85;;;25.80;56.80;;;;;;5053446;28;20064;-53
2021/06/18 01:23:39;;;;;;;9.13;5.10;;;25.80;56.80;;;;;;5037548;28;20077;-53
2021/06/18 01:26:24;;;;;;;8.10;5.45;;;25.80;56.80;;;;;;5035700;28;20045;-55
2021/06/18 01:28:54;;;;;;;7.15;4.85;;;25.80;56.80;;;;;;5038881;28;20041;-50
2021/06/18 01:31:43;;;;;;;7.63;4.97;;;25.80;56.80;;;;;;5052376;28;20041;-55
2021/06/18 01:34:21;;;;;;;9.18;4.95;;;25.80;56.90;;;;;;5049169;28;20118;-54
2021/06/18 01:36:53;;;;;;;5.95;4.63;;;25.80;56.80;;;;;;5039950;28;20095;-55
2021/06/18 01:39:23;;;;;;;8.82;5.20;;;25.80;56.80;;;;;;5053124;28;20041;-56
2021/06/18 01:41:52;;;;;;;8.00;4.88;;;25.80;56.90;;;;;;5052792;28;20080;-54
2021/06/18 01:44:21;;;;;;;7.40;5.13;;;25.80;56.90;;;;;;5048654;28;20466;-55
2021/06/18 01:46:49;;;;;;;8.05;5.05;;;25.80;56.90;;;;;;5035216;28;20546;-54
2021/06/18 01:49:17;;;;;;;6.43;4.65;;;25.80;56.90;;;;;;5036727;28;20048;-56
2021/06/18 01:51:49;;;;;;;7.20;4.20;;;25.80;56.90;;;;;;5036364;28;20098;-53
2021/06/18 01:54:18;;;;;;;5.88;4.35;;;25.80;56.90;;;;;;5035128;28;20074;-57
2021/06/18 01:56:46;;;;;;;6.63;5.15;;;25.80;56.90;;;;;;5034719;28;20416;-51
2021/06/18 01:59:14;;;;;;;6.63;4.55;;;25.80;56.90;;;;;;5051916;28;20471;-54
2021/06/18 02:01:47;;;;;;;6.70;4.63;;;25.80;56.90;;;;;;5051138;28;20048;-50
2021/06/18 02:04:16;;;;;;;6.65;4.80;;;25.80;57.00;;;;;;5051550;28;20547;-55
2021/06/18 02:06:47;;;;;;;9.68;4.43;;;25.80;57.00;;;;;;5049718;28;20145;-55
2021/06/18 02:09:16;;;;;;;6.43;4.57;;;25.80;57.00;;;;;;5051672;28;20041;-54
2021/06/18 02:11:44;;;;;;;6.82;4.78;;;25.80;57.00;;;;;;5051760;28;20041;-52
2021/06/18 02:14:22;;;;;;;5.80;4.25;;;25.80;57.00;;;;;;5054775;28;20083;-53
2021/06/18 02:17:01;;;;;;;7.82;4.78;;;25.80;57.00;;;;;;5054234;28;20076;-54
2021/06/18 02:19:31;;;;;;;6.03;4.28;;;25.80;57.00;;;;;;5055279;28;20053;-52
2021/06/18 02:21:59;;;;;;;7.85;4.75;;;25.80;57.10;;;;;;5041659;28;20049;-53
2021/06/18 02:24:30;;;;;;;6.57;4.72;;;25.80;57.10;;;;;;5055018;28;20099;-55
2021/06/18 02:26:59;;;;;;;6.40;4.68;;;25.80;57.10;;;;;;5041862;28;20053;-54
2021/06/18 02:29:26;;;;;;;7.78;4.50;;;25.80;57.10;;;;;;5054604;28;20412;-54
2021/06/18 02:31:56;;;;;;;7.47;4.85;;;25.80;57.10;;;;;;5055886;28;20080;-56
2021/06/18 02:34:23;;;;;;;6.78;4.65;;;25.80;57.10;;;;;;5041706;28;20056;-55
2021/06/18 02:36:51;;;;;;;6.05;4.57;;;25.70;57.00;;;;;;5050882;28;20049;-54
2021/06/18 02:39:18;;;;;;;6.03;4.05;;;25.70;57.00;;;;;;5043311;28;20103;-55
2021/06/18 02:41:45;;;;;;;8.70;5.00;;;25.70;57.10;;;;;;5038619;28;20053;-53
2021/06/18 02:44:12;;;;;;;6.68;4.50;;;25.80;57.10;;;;;;5038984;28;20041;-54
2021/06/18 02:46:58;;;;;;;5.90;4.72;;;25.70;57.10;;;;;;5039142;28;20080;-53
2021/06/18 02:49:36;;;;;;;5.88;4.72;;;25.70;57.10;;;;;;5049482;28;20048;-52
2021/06/18 02:52:12;;;;;;;6.10;4.82;;;25.70;57.10;;;;;;5043742;28;20119;-52
2021/06/18 02:54:50;;;;;;;5.95;4.38;;;25.70;57.10;;;;;;5049181;28;20048;-54
2021/06/18 02:57:23;;;;;;;7.03;4.85;;;25.70;57.10;;;;;;5042876;28;20464;-55
2021/06/18 03:00:11;;;;;;;6.03;3.90;;;25.70;57.10;;;;;;5050344;28;20158;-56
2021/06/18 03:02:53;;;;;;;8.07;4.47;;;25.70;57.10;;;;;;5054216;28;20049;-55
2021/06/18 03:05:22;;;;;;;5.55;4.20;;;25.70;57.10;;;;;;5054554;28;20049;-54
2021/06/18 03:07:58;;;;;;;7.00;4.65;;;25.70;57.10;;;;;;5055101;28;20045;-53
2021/06/18 03:10:27;;;;;;;6.32;4.47;;;25.70;57.10;;;;;;5054027;28;20106;-52
2021/06/18 03:13:06;;;;;;;5.13;4.38;;;25.70;57.10;;;;;;5053940;28;20493;-52
2021/06/18 03:15:38;;;;;;;5.55;4.15;;;25.70;57.10;;;;;;5054386;28;20079;-55
2021/06/18 03:18:06;;;;;;;4.60;4.05;;;25.70;57.10;;;;;;5055220;28;20114;-55
2021/06/18 03:20:35;;;;;;;4.95;4.00;;;25.70;57.70;;;;;;5053896;28;20045;-49
2021/06/18 03:23:06;;;;;;;6.43;3.92;;;25.70;57.10;;;;;;5053021;28;20057;-56
2021/06/18 03:25:36;;;;;;;5.80;4.18;;;25.70;57.30;;;;;;5053399;28;20049;-52
2021/06/18 03:28:05;;;;;;;6.75;4.60;;;25.70;57.10;;;;;;5053876;28;20124;-53
2021/06/18 03:30:34;;;;;;;5.32;3.97;;;25.70;57.10;;;;;;5043273;28;20123;-51
2021/06/18 03:33:03;;;;;;;5.88;4.28;;;25.70;57.10;;;;;;5047603;28;20047;-55
2021/06/18 03:35:32;;;;;;;4.32;3.70;;;25.70;57.10;;;;;;5053976;28;20184;-53
2021/06/18 03:38:00;;;;;;;7.07;4.32;;;25.70;57.00;;;;;;5044934;28;20053;-55
2021/06/18 03:40:28;;;;;;;6.75;4.05;;;25.70;57.00;;;;;;5037419;28;20049;-52
2021/06/18 03:42:56;;;;;;;6.20;4.13;;;25.80;57.10;;;;;;5045503;28;20126;-53
2021/06/18 03:45:23;;;;;;;6.05;4.07;;;25.80;57.10;;;;;;5052152;28;20057;-51
2021/06/18 03:47:51;;;;;;;5.93;3.92;;;25.80;57.00;;;;;;5053645;28;20072;-52
2021/06/18 03:50:22;;;;;;;6.30;3.88;;;25.80;57.00;;;;;;5050215;28;20042;-51
2021/06/18 03:52:49;;;;;;;6.05;3.78;;;25.80;57.00;;;;;;5040779;28;20037;-54
2021/06/18 03:55:17;;;;;;;6.75;4.43;;;25.80;57.00;;;;;;5051139;28;20045;-50
2021/06/18 03:57:47;;;;;;;6.50;4.60;;;25.80;56.90;;;;;;5039468;28;20125;-52
2021/06/18 04:00:15;;;;;;;5.97;4.13;;;25.80;56.90;;;;;;5055056;28;20056;-53
2021/06/18 04:02:44;;;;;;;7.47;4.18;;;25.80;56.90;;;;;;5051943;28;20049;-53
2021/06/18 04:05:16;;;;;;;6.05;4.13;;;25.80;56.90;;;;;;5037294;28;20103;-52
2021/06/18 04:07:46;;;;;;;6.88;3.90;;;25.80;56.90;;;;;;5062702;28;20045;-55
2021/06/18 04:10:18;;;;;;;7.45;4.10;;;25.80;56.90;;;;;;5036068;28;20037;-55
2021/06/18 04:12:49;;;;;;;5.10;3.95;;;25.80;56.80;;;;;;5035729;28;20796;-55
2021/06/18 04:15:19;;;;;;;4.82;3.97;;;25.90;56.80;;;;;;5035920;28;20460;-53
2021/06/18 04:17:47;;;;;;;4.70;3.78;;;25.90;56.80;;;;;;5034630;28;20584;-51
2021/06/18 04:20:15;;;;;;;4.85;3.90;;;25.90;56.60;;;;;;5053074;28;20083;-55
2021/06/18 04:22:45;;;;;;;4.57;3.78;;;26.00;56.70;;;;;;5042991;28;20053;-58
2021/06/18 04:25:13;;;;;;;5.03;3.95;;;26.00;56.50;;;;;;5035686;28;20049;-53
2021/06/18 04:27:40;;;;;;;5.28;4.20;;;26.10;56.40;;;;;;5052449;28;20393;-50
2021/06/18 04:30:13;;;;;;;5.13;4.05;;;26.10;56.30;;;;;;5053937;28;20044;-54
2021/06/18 04:32:41;;;;;;;4.10;3.38;;;26.10;56.30;;;;;;5052592;28;20040;-55
2021/06/18 04:35:09;;;;;;;5.70;3.55;;;26.10;56.20;;;;;;5052627;28;20049;-56
2021/06/18 04:37:37;;;;;;;4.53;3.38;;;26.20;56.20;;;;;;5039681;28;20394;-55
2021/06/18 04:40:06;;;;;;;6.70;3.53;;;26.20;56.10;;;;;;5048705;28;20083;-51
2021/06/18 04:42:34;;;;;;;6.75;4.10;;;26.20;56.10;;;;;;5040634;28;20046;-54
2021/06/18 04:45:01;;;;;;;5.30;4.05;;;26.20;56.00;;;;;;5046434;28;20049;-54
2021/06/18 04:47:28;;;;;;;5.13;3.90;;;26.30;56.00;;;;;;5052104;28;20052;-55
2021/06/18 04:49:55;;;;;;;5.65;3.53;;;26.30;55.90;;;;;;5053337;28;20049;-53
2021/06/18 04:52:23;;;;;;;5.07;3.88;;;26.30;55.80;;;;;;5052381;28;20048;-55
2021/06/18 04:54:55;;;;;;;5.80;4.05;;;26.40;55.80;;;;;;5058440;28;20040;-52
2021/06/18 04:57:23;;;;;;;6.13;4.40;;;26.40;55.80;;;;;;5060336;28;20045;-55
2021/06/18 04:59:50;;;;;;;5.68;3.58;;;26.40;55.70;;;;;;5045601;28;20053;-56
2021/06/18 05:02:17;;;;;;;4.90;3.97;;;26.50;55.70;;;;;;5036947;28;20131;-52
2021/06/18 05:04:45;;;;;;;7.25;4.00;;;26.50;55.60;;;;;;5049131;28;20041;-56
2021/06/18 05:07:12;;;;;;;6.88;3.50;;;26.50;55.50;;;;;;5048342;28;20069;-52
2021/06/18 05:09:39;;;;;;;4.65;3.80;;;26.60;55.50;;;;;;5038230;28;20080;-54
2021/06/18 05:12:07;;;;;;;4.13;3.30;;;26.60;55.40;;;;;;5050550;28;20459;-55
2021/06/18 05:14:34;;;;;;;5.03;3.90;;;26.60;55.30;;;;;;5036377;28;20088;-55
2021/06/18 05:17:01;;;;;;;4.68;3.40;;;26.60;55.30;;;;;;5052250;28;20045;-53
2021/06/18 05:19:28;;;;;;;5.53;3.92;;;26.70;55.30;;;;;;5034573;28;20103;-55
2021/06/18 05:21:55;;;;;;;4.97;3.95;;;26.70;55.20;;;;;;5034794;28;20106;-53
2021/06/18 05:24:23;;;;;;;4.07;3.55;;;26.70;55.20;;;;;;5052084;28;20056;-55
2021/06/18 05:26:50;;;;;;;4.55;3.30;;;26.70;55.10;;;;;;5052254;28;20048;-53
2021/06/18 05:29:17;;;;;;;4.25;3.42;;;26.70;55.10;;;;;;5035783;28;20449;-54
2021/06/18 05:31:44;;;;;;;4.28;3.50;;;26.80;55.10;;;;;;5050769;28;20049;-54
2021/06/18 05:34:12;;;;;;;6.32;3.63;;;26.80;55.10;;;;;;5052828;28;20140;-55
2021/06/18 05:36:44;;;;;;;5.10;3.50;;;26.80;55.10;;;;;;5052073;28;20072;-55
2021/06/18 05:39:15;;;;;;;5.90;3.58;;;26.80;55.10;;;;;;5051618;28;20114;-55
2021/06/18 05:41:43;;;;;;;4.53;3.33;;;26.80;55.10;;;;;;5051558;28;20056;-53
2021/06/18 05:44:10;;;;;;;5.15;3.13;;;26.80;55.10;;;;;;5039588;28;20448;-53
2021/06/18 05:46:37;;;;;;;4.90;3.50;;;26.80;55.10;;;;;;5040650;28;20103;-54
2021/06/18 05:49:05;;;;;;;4.82;3.75;;;26.80;55.10;;;;;;5047778;28;20115;-56
2021/06/18 05:51:32;;;;;;;5.78;3.72;;;26.80;55.00;;;;;;5053587;28;20457;-55
2021/06/18 05:53:59;;;;;;;4.38;3.35;;;26.80;55.00;;;;;;5046244;28;20610;-56
2021/06/18 05:56:27;;;;;;;5.00;3.40;;;26.80;55.00;;;;;;5038072;28;20103;-56
2021/06/18 05:58:54;;;;;;;8.50;3.58;;;26.80;55.00;;;;;;5038384;28;20053;-55
2021/06/18 06:01:24;;;;;;;6.38;3.50;;;26.80;55.00;;;;;;5039630;28;20482;-53
2021/06/18 06:03:59;;;;;;;4.63;3.50;;;26.80;55.00;;;;;;5044363;28;20079;-53
2021/06/18 06:06:28;;;;;;;7.38;3.92;;;26.80;54.90;;;;;;5055239;28;20053;-53
2021/06/18 06:08:56;;;;;;;5.88;3.50;;;26.80;54.90;;;;;;5055605;28;20095;-52
2021/06/18 06:11:25;;;;;;;5.50;3.75;;;26.80;54.90;;;;;;5050484;28;20041;-57
2021/06/18 06:14:03;;;;;;;5.55;3.92;;;26.80;54.90;;;;;;5037673;28;20563;-53
2021/06/18 06:16:32;;;;;;;5.03;3.60;;;26.80;54.90;;;;;;5054700;28;20042;-54
2021/06/18 06:19:01;;;;;;;4.97;3.63;;;26.80;54.90;;;;;;5038220;28;20134;-54
2021/06/18 06:21:29;;;;;;;6.18;3.70;;;26.80;54.90;;;;;;5040395;28;20049;-55
2021/06/18 06:23:56;;;;;;;5.53;3.70;;;26.80;55.00;;;;;;5054103;28;20075;-54
2021/06/18 06:26:24;;;;;;;6.40;3.70;;;26.80;55.10;;;;;;5053862;28;20041;-52
2021/06/18 06:28:51;;;;;;;6.28;4.30;;;26.80;55.10;;;;;;5050375;28;20099;-54
2021/06/18 06:31:20;;;;;;;6.22;3.78;;;26.80;55.10;;;;;;5055111;28;20128;-55
2021/06/18 06:33:50;;;;;;;6.68;3.90;;;26.80;55.10;;;;;;5036202;28;20080;-52
2021/06/18 06:36:17;;;;;;;6.93;3.70;;;26.80;55.10;;;;;;5036536;28;20053;-56
2021/06/18 06:38:44;;;;;;;7.13;3.97;;;26.80;55.10;;;;;;5054035;28;20128;-56
2021/06/18 06:41:12;;;;;;;7.53;3.97;;;26.80;55.10;;;;;;5054055;28;20052;-57
2021/06/18 06:43:39;;;;;;;5.88;3.65;;;26.80;55.10;;;;;;5053783;28;20049;-52
2021/06/18 06:46:08;;;;;;;6.30;3.65;;;26.80;55.20;;;;;;5053267;28;20051;-57
2021/06/18 06:48:37;;;;;;;6.22;3.85;;;26.80;55.20;;;;;;5053477;28;20489;-53
2021/06/18 06:51:05;;;;;;;6.07;3.60;;;26.80;55.20;;;;;;5053014;28;20075;-53
2021/06/18 06:53:32;;;;;;;6.00;3.45;;;26.80;55.20;;;;;;5041052;28;20041;-55
2021/06/18 06:55:59;;;;;;;7.18;3.78;;;26.80;55.30;;;;;;5037227;28;20132;-51
2021/06/18 06:58:27;;;;;;;7.10;3.85;;;26.80;55.20;;;;;;5046344;28;20111;-56
2021/06/18 07:00:54;;;;;;;5.43;3.58;;;26.80;55.30;;;;;;5043318;28;20077;-55
2021/06/18 07:03:21;;;;;;;5.30;3.72;;;26.80;55.30;;;;;;5038430;28;20053;-53
2021/06/18 07:05:49;;;;;;;4.72;3.75;;;26.80;55.30;;;;;;5037079;28;20100;-57
2021/06/18 07:08:21;;;;;;;6.30;3.88;;;26.80;55.30;;;;;;5038522;28;20391;-54
2021/06/18 07:10:49;;;;;;;7.55;4.05;;;26.80;55.30;;;;;;5044592;28;20401;-52
2021/06/18 07:13:17;;;;;;;5.65;3.83;;;26.80;55.30;;;;;;5048211;28;20514;-53
2021/06/18 07:15:46;;;;;;;6.60;3.88;;;26.80;55.30;;;;;;5037778;28;20570;-57
2021/06/18 07:18:13;;;;;;;5.80;3.67;;;26.80;55.90;;;;;;5042742;28;20049;-57
2021/06/18 07:20:41;;;;;;;8.85;3.75;;;26.80;55.30;;;;;;5054539;28;20126;-56
2021/06/18 07:23:09;;;;;;;8.82;3.92;;;26.80;55.30;;;;;;5053615;28;20052;-57
2021/06/18 07:25:37;;;;;;;8.65;3.50;;;26.80;55.30;;;;;;5053340;28;20073;-54
2021/06/18 07:28:07;;;;;;;6.38;3.30;;;26.80;55.30;;;;;;5055539;28;20072;-54
2021/06/18 07:30:35;;;;;;;8.82;3.53;;;26.80;55.30;;;;;;5069037;28;20048;-58
2021/06/18 07:33:03;;;;;;;12.70;4.28;;;26.80;55.30;;;;;;5052621;28;20068;-55
2021/06/18 07:35:31;;;;;;;6.85;3.72;;;26.80;55.30;;;;;;5035814;28;20041;-56
2021/06/18 07:37:58;;;;;;;4.90;3.50;;;26.90;55.40;;;;;;5051731;28;20080;-54
2021/06/18 07:40:25;;;;;;;9.95;4.13;;;26.90;55.40;;;;;;5052587;28;20139;-55
2021/06/18 07:42:54;;;;;;;11.05;3.35;;;26.90;55.40;;;;;;5052960;28;20095;-54
2021/06/18 07:45:21;;;;;;;6.00;3.65;;;26.90;55.40;;;;;;5052563;28;20114;-51
2021/06/18 07:47:48;;;;;;;6.13;3.65;;;26.90;55.40;;;;;;5038012;28;20449;-55
2021/06/18 07:50:18;;;;;;;7.70;3.65;;;26.90;55.40;;;;;;5037659;28;20467;-51
2021/06/18 07:52:46;;;;;;;4.68;3.80;;;26.90;55.40;;;;;;5050668;28;20049;-52
2021/06/18 07:55:20;;;;;;;6.22;3.72;;;26.90;55.50;;;;;;5052533;28;20044;-56
2021/06/18 07:57:50;;;;;;;5.25;3.60;;;26.90;55.50;;;;;;5052663;28;20060;-56
2021/06/18 08:00:18;;;;;;;7.70;3.10;;;26.90;55.50;;;;;;5053453;28;20092;-52
2021/06/18 08:02:46;;;;;;;4.32;3.38;;;26.90;55.50;;;;;;5052297;28;20120;-55
2021/06/18 08:05:14;;;;;;;4.78;3.50;;;26.90;55.50;;;;;;5053375;28;20053;-54
2021/06/18 08:07:43;;;;;;;6.50;3.50;;;26.90;55.60;;;;;;5052575;28;20055;-58
2021/06/18 08:10:13;;;;;;;9.48;3.47;;;26.90;55.60;;;;;;5043785;28;20041;-55
2021/06/18 08:12:43;;;;;;;6.82;3.38;;;26.90;55.70;;;;;;5046417;28;20131;-55
2021/06/18 08:15:12;;;;;;;6.57;3.65;;;26.90;55.80;;;;;;5053320;28;20044;-55
2021/06/18 08:17:39;;;;;;;10.27;3.70;;;26.90;55.80;;;;;;5045729;28;20060;-57
2021/06/18 08:20:10;;;;;;;5.85;3.53;;;26.90;55.90;;;;;;5041869;28;20118;-54
2021/06/18 08:22:38;;;;;;;7.07;4.25;;;27.00;56.10;;;;;;5053017;28;20081;-55
2021/06/18 08:25:07;;;;;;;10.80;3.35;;;27.00;56.20;;;;;;5053168;28;20051;-56
2021/06/18 08:27:35;;;;;;;8.82;3.90;;;27.00;56.30;;;;;;5051003;28;20049;-57
2021/06/18 08:30:04;;;;;;;3.65;3.08;;;27.00;56.40;;;;;;5052013;28;20037;-57
2021/06/18 08:32:47;;;;;;;8.75;3.75;;;27.00;56.40;;;;;;5051834;28;20048;-57
2021/06/18 08:35:15;;;;;;;6.10;3.35;;;27.00;56.50;;;;;;5047099;28;20045;-56
2021/06/18 08:37:42;;;;;;;6.65;3.97;;;27.00;56.50;;;;;;5035511;28;20449;-58
2021/06/18 08:40:10;;;;;;;11.60;3.95;;;27.00;56.50;;;;;;5035531;28;20392;-56
2021/06/18 08:42:39;;;;;;;5.28;3.85;;;27.00;56.50;;;;;;5037470;28;20449;-52
2021/06/18 08:45:08;;;;;;;5.88;3.85;;;27.00;56.50;;;;;;5064497;28;20053;-56
2021/06/18 08:47:36;;;;;;;8.20;3.92;;;27.00;56.40;;;;;;5036243;28;20068;-51
2021/06/18 08:50:05;;;;;;;6.22;3.72;;;27.00;56.40;;;;;;5036222;28;20511;-58
2021/06/18 08:52:32;;;;;;;8.57;4.15;;;27.00;56.50;;;;;;5051825;28;21008;-52
2021/06/18 08:55:00;;;;;;;6.47;4.10;;;27.00;56.50;;;;;;5034216;28;20049;-53
2021/06/18 08:57:27;;;;;;;7.15;4.28;;;27.00;56.60;;;;;;5053014;28;20056;-54
2021/06/18 08:59:54;;;;;;;7.47;4.10;;;27.10;56.70;;;;;;5033563;28;20509;-57
2021/06/18 09:02:23;;;;;;;9.02;4.40;;;27.10;56.90;;;;;;5034986;28;20045;-55
2021/06/18 09:05:06;;;;;;;6.00;4.13;;;27.10;57.00;;;;;;5052402;28;20106;-54
2021/06/18 09:07:51;;;;;;;5.95;3.85;;;27.10;57.10;;;;;;5052471;28;20106;-58
2021/06/18 09:10:26;;;;;;;10.65;4.93;;;27.10;57.10;;;;;;5033760;28;20087;-55
2021/06/18 09:13:18;;;;;;;7.85;4.50;;;27.10;57.20;;;;;;5050368;28;20551;-53
2021/06/18 09:15:54;;;;;;;8.57;4.22;;;27.10;57.30;;;;;;5036566;28;20049;-59
2021/06/18 09:18:22;;;;;;;8.25;4.28;;;27.10;57.30;;;;;;5048972;28;20132;-53
2021/06/18 09:20:52;;;;;;;7.15;4.07;;;27.10;57.40;;;;;;5052291;28;20041;-57
2021/06/18 09:23:31;;;;;;;5.70;3.97;;;27.10;57.40;;;;;;5062264;28;20044;-57
2021/06/18 09:26:27;;;;;;;9.30;4.30;;;27.10;57.40;;;;;;5042915;28;20118;-56
2021/06/18 09:29:11;;;;;;;7.35;4.13;;;27.10;57.50;;;;;;5043124;28;20052;-58
2021/06/18 09:32:00;;;;;;;8.48;4.15;;;27.10;57.70;;;;;;5057520;28;20041;-57
2021/06/18 09:34:50;;;;;;;7.20;3.95;;;27.10;57.70;;;;;;5058760;28;20508;-59
2021/06/18 09:37:19;;;;;;;6.65;4.05;;;27.10;57.70;;;;;;5057402;28;20044;-58
2021/06/18 09:40:08;;;;;;;6.32;3.92;;;27.20;57.80;;;;;;5056854;28;20053;-58
2021/06/18 09:42:46;;;;;;;8.00;4.20;;;27.20;57.90;;;;;;5048499;28;20052;-49
2021/06/18 09:45:17;;;;;;;6.20;4.38;;;27.20;57.90;;;;;;5041216;28;20054;-53
2021/06/18 09:47:45;;;;;;;8.57;4.30;;;27.20;57.90;;;;;;5042391;28;20454;-54
2021/06/18 09:50:15;;;;;;;7.75;4.32;;;27.20;57.80;;;;;;5058521;28;20037;-51
2021/06/18 09:52:44;;;;;;;7.32;3.88;;;27.20;57.80;;;;;;5049145;28;20581;-54
2021/06/18 09:55:23;;;;;;;8.95;4.20;;;27.20;57.70;;;;;;5049920;28;20464;-55
2021/06/18 09:57:54;;;;;;;7.80;4.45;;;27.20;57.60;;;;;;5059004;28;20497;-52
2021/06/18 10:00:24;;;;;;;8.30;4.05;;;27.20;57.60;;;;;;5049929;28;20111;-53
2021/06/18 10:02:53;;;;;;;8.05;3.75;;;27.20;57.50;;;;;;5042149;28;20049;-51
2021/06/18 10:05:25;;;;;;;10.30;3.85;;;27.20;57.50;;;;;;5043041;28;20053;-57
2021/06/18 10:07:55;;;;;;;8.45;4.78;;;27.20;57.50;;;;;;5049415;28;22452;-53
2021/06/18 10:10:27;;;;;;;5.55;4.32;;;27.20;57.50;;;;;;5052455;28;20049;-58
2021/06/18 10:12:56;;;;;;;7.63;4.40;;;27.20;57.30;;;;;;5047061;28;20405;-52
2021/06/18 10:15:30;;;;;;;6.00;4.00;;;27.20;57.30;;;;;;5058016;28;20041;-58
2021/06/18 10:17:58;;;;;;;6.97;4.20;;;27.20;57.30;;;;;;5057962;28;20158;-56
2021/06/18 10:20:30;;;;;;;5.82;4.55;;;27.20;57.30;;;;;;5057175;28;20049;-59
2021/06/18 10:23:12;;;;;;;7.13;4.03;;;27.20;57.30;;;;;;5059219;28;20045;-55
2021/06/18 10:25:58;;;;;;;8.43;4.55;;;27.20;57.20;;;;;;5057085;28;20049;-52
2021/06/18 10:28:28;;;;;;;8.63;3.92;;;27.20;57.20;;;;;;5051012;28;20083;-58
2021/06/18 10:30:58;;;;;;;5.40;3.83;;;27.20;57.10;;;;;;5047255;28;20106;-58
2021/06/18 10:33:28;;;;;;;11.43;3.65;;;27.20;57.10;;;;;;5051606;28;20073;-56
2021/06/18 10:36:06;;;;;;;5.90;4.10;;;27.20;57.10;;;;;;5043697;28;20041;-58
2021/06/18 10:38:40;;;;;;;7.60;3.72;;;27.20;57.10;;;;;;5054691;28;20049;-55
2021/06/18 10:41:16;;;;;;;4.00;3.60;;;27.20;57.10;;;;;;5054457;28;20072;-54
2021/06/18 10:43:49;;;;;;;6.85;3.75;;;27.20;57.00;;;;;;5048648;28;20551;-56
2021/06/18 10:46:28;;;;;;;5.78;4.15;;;27.20;56.90;;;;;;5053371;28;20439;-58
2021/06/18 10:48:56;;;;;;;6.70;4.40;;;27.20;56.90;;;;;;5049161;28;20045;-52
2021/06/18 10:51:29;;;;;;;6.45;3.38;;;27.20;56.90;;;;;;5042517;28;20485;-56
2021/06/18 10:54:03;;;;;;;4.75;3.78;;;27.20;56.90;;;;;;5049240;28;20041;-53
2021/06/18 10:56:49;;;;;;;8.27;4.25;;;27.20;56.90;;;;;;5039699;28;20045;-55
2021/06/18 10:59:27;;;;;;;4.70;3.70;;;27.20;56.80;;;;;;5038815;28;20057;-58
2021/06/18 11:01:54;;;;;;;4.25;3.55;;;27.20;56.80;;;;;;5046691;28;20072;-55
2021/06/18 11:04:44;;;;;;;6.28;3.88;;;27.20;56.70;;;;;;5048571;28;20140;-56
2021/06/18 11:07:33;;;;;;;4.65;3.60;;;27.20;56.80;;;;;;5047271;28;20131;-53
2021/06/18 11:10:08;;;;;;;5.05;3.88;;;27.20;56.70;;;;;;5054092;28;20049;-52
2021/06/18 11:12:37;;;;;;;7.85;4.10;;;27.20;56.70;;;;;;5054043;28;20048;-54
2021/06/18 11:15:06;;;;;;;4.80;3.90;;;27.20;56.70;;;;;;5054044;28;20102;-54
2021/06/18 11:18:01;;;;;;;6.55;3.75;;;27.20;56.70;;;;;;5044571;28;20049;-54
2021/06/18 11:20:35;;;;;;;7.78;4.18;;;27.20;56.70;;;;;;5050753;28;20060;-57
2021/06/18 11:23:13;;;;;;;7.47;4.00;;;27.20;56.70;;;;;;5051387;28;20049;-55
2021/06/18 11:25:41;;;;;;;5.60;3.38;;;27.20;56.70;;;;;;5042892;28;20049;-56
2021/06/18 11:30:52;;;;;;;5.53;4.00;;;27.20;56.70;;;;;;5053743;28;20493;-56
2021/06/18 11:33:50;;;;;;;6.47;4.38;;;27.20;56.60;;;;;;5054061;28;20427;-56
2021/06/18 11:36:21;;;;;;;4.40;3.53;;;27.20;56.60;;;;;;5054056;28;20041;-53
2021/06/18 11:38:59;;;;;;;4.60;3.90;;;27.20;56.60;;;;;;5053530;28;20044;-53
2021/06/18 11:41:29;;;;;;;5.32;3.67;;;27.20;56.60;;;;;;5047327;28;20075;-54
2021/06/18 11:44:02;;;;;;;5.90;3.80;;;27.20;56.50;;;;;;5054932;28;20049;-56
2021/06/18 11:46:32;;;;;;;4.93;3.60;;;27.20;56.60;;;;;;5038805;28;20076;-57
2021/06/18 11:49:08;;;;;;;4.72;3.60;;;27.20;56.60;;;;;;5053462;28;20611;-57
2021/06/18 11:51:35;;;;;;;6.70;3.78;;;27.20;56.50;;;;;;5055778;28;20045;-54
2021/06/18 11:54:06;;;;;;;4.80;3.92;;;27.20;56.50;;;;;;5052652;28;20049;-55
2021/06/18 11:56:36;;;;;;;5.25;3.60;;;27.20;56.40;;;;;;5053464;28;20112;-57
2021/06/18 11:59:14;;;;;;;5.68;3.50;;;27.20;56.40;;;;;;5054093;28;20057;-54
2021/06/18 12:01:41;;;;;;;5.70;3.60;;;27.20;56.40;;;;;;5053517;28;20053;-55
2021/06/18 12:04:17;;;;;;;5.10;3.90;;;27.20;56.40;;;;;;5053277;28;20091;-56
2021/06/18 12:06:44;;;;;;;3.80;3.33;;;27.20;56.40;;;;;;5053560;28;20053;-54
2021/06/18 12:09:22;;;;;;;4.72;3.63;;;27.20;56.40;;;;;;5053219;28;20126;-54
2021/06/18 12:12:01;;;;;;;6.10;3.88;;;27.20;56.40;;;;;;5052014;28;20048;-56
2021/06/18 12:14:40;;;;;;;5.95;3.97;;;27.20;56.40;;;;;;5053134;28;20053;-56
2021/06/18 12:17:09;;;;;;;5.55;3.88;;;27.20;56.40;;;;;;5053373;28;20480;-54
2021/06/18 12:19:45;;;;;;;6.15;3.92;;;27.20;56.40;;;;;;5052810;28;20061;-55
2021/06/18 12:22:21;;;;;;;5.43;4.30;;;27.20;56.30;;;;;;5051646;28;20044;-55
2021/06/18 12:24:53;;;;;;;7.93;4.07;;;27.20;56.30;;;;;;5038679;28;20059;-55
2021/06/18 12:27:22;;;;;;;4.63;4.00;;;27.20;56.30;;;;;;5050435;28;20114;-53
2021/06/18 12:29:52;;;;;;;4.57;3.85;;;27.20;56.30;;;;;;5052483;28;20148;-55
2021/06/18 12:32:39;;;;;;;5.80;3.45;;;27.20;56.30;;;;;;5052517;28;20567;-55
2021/06/18 12:35:11;;;;;;;4.57;3.78;;;27.20;56.30;;;;;;5052895;28;20115;-55
2021/06/18 12:37:41;;;;;;;4.18;3.67;;;27.20;56.20;;;;;;5052924;28;20493;-55
2021/06/18 12:40:26;;;;;;;7.65;3.92;;;27.20;56.80;;;;;;5039243;28;20053;-54
2021/06/18 12:42:55;;;;;;;5.53;3.70;;;27.20;56.20;;;;;;5037066;28;20056;-53
2021/06/18 12:45:31;;;;;;;5.43;3.90;;;27.20;56.20;;;;;;5051023;28;20049;-56
2021/06/18 12:48:34;;;;;;;5.28;3.55;;;27.20;56.20;;;;;;5051579;28;20051;-57
2021/06/18 12:51:03;;;;;;;4.13;3.60;;;27.20;56.20;;;;;;5034834;28;20076;-56
2021/06/18 12:53:42;;;;;;;4.88;3.55;;;27.20;56.10;;;;;;5051409;28;20077;-56
2021/06/18 12:56:25;;;;;;;4.45;3.60;;;27.20;56.10;;;;;;5050811;28;20501;-53
2021/06/18 12:58:54;;;;;;;5.50;3.65;;;27.20;56.10;;;;;;5051739;28;20060;-53
2021/06/18 13:01:27;;;;;;;5.25;3.80;;;27.20;56.10;;;;;;5051647;28;20089;-57
2021/06/18 13:04:04;;;;;;;5.68;3.55;;;27.20;56.00;;;;;;5034657;28;20096;-55
2021/06/18 13:06:44;;;;;;;5.75;3.95;;;27.20;56.00;;;;;;5051921;28;20041;-54
2021/06/18 13:09:13;;;;;;;6.00;3.95;;;27.20;56.00;;;;;;5034779;28;20045;-55